Time;durP1;ratioP1;P1;durP2;ratioP2;P2;SDS_P1;SDS_P2;PMS_P1;PMS_P2;Temp;Humidity;BMP_temperature;BMP_pressure;BME280_temperature;BME280_humidity;BME280_pressure;Samples;Min_cycle;Max_cycle;Signal;HPM_P1;HPM_P2
2022/08/06 00:00:23;;;;;;;4.50;4.30;;;;;;;20.98;64.55;64173.09;5006088;28;20239;-77
2022/08/06 00:02:50;;;;;;;4.53;4.22;;;;;;;20.91;64.90;64165.78;5002543;28;20203;-76
2022/08/06 00:05:16;;;;;;;4.53;4.13;;;;;;;20.92;65.00;64169.41;5007731;28;20241;-78
2022/08/06 00:07:43;;;;;;;4.88;4.55;;;;;;;20.84;64.74;64156.41;5007722;28;20203;-78
2022/08/06 00:10:10;;;;;;;6.40;4.18;;;;;;;20.78;64.67;64152.75;5004614;28;20203;-78
2022/08/06 00:12:37;;;;;;;4.05;3.85;;;;;;;20.78;64.99;64152.22;4989606;28;20402;-77
2022/08/06 00:15:07;;;;;;;4.90;4.60;;;;;;;20.73;64.82;64147.53;5008004;28;20269;-77
2022/08/06 00:17:34;;;;;;;5.55;5.07;;;;;;;20.69;65.19;64141.28;5007487;28;20234;-78
2022/08/06 00:20:01;;;;;;;5.10;4.65;;;;;;;20.64;65.48;64140.72;4998113;28;20230;-78
2022/08/06 00:22:28;;;;;;;5.45;5.00;;;;;;;20.58;65.80;64131.88;4988024;28;20247;-78
2022/08/06 00:24:55;;;;;;;5.40;4.90;;;;;;;20.58;65.96;64132.41;4988689;28;20199;-78
2022/08/06 00:27:22;;;;;;;5.20;4.72;;;;;;;20.56;65.64;64129.78;4988555;28;20243;-77
2022/08/06 00:29:49;;;;;;;5.05;4.65;;;;;;;20.63;65.41;64137.09;4995459;28;20200;-76
2022/08/06 00:32:17;;;;;;;4.78;4.03;;;;;;;20.53;65.64;64124.06;4995204;28;20226;-78
2022/08/06 00:34:44;;;;;;;5.20;4.53;;;;;;;20.53;64.79;64129.25;5006754;28;20383;-79
2022/08/06 00:37:11;;;;;;;4.00;3.70;;;;;;;20.52;65.15;64123.53;5003784;28;20234;-79
2022/08/06 00:39:38;;;;;;;4.22;3.92;;;;;;;20.53;64.37;64124.06;5005687;28;20222;-78
2022/08/06 00:42:06;;;;;;;3.58;3.38;;;;;;;20.58;64.63;64129.81;5006730;28;20226;-78
2022/08/06 00:44:32;;;;;;;3.95;3.65;;;;;;;20.58;64.99;64134.97;5006406;28;20206;-78
2022/08/06 00:46:59;;;;;;;3.60;3.30;;;;;;;20.53;64.85;64127.19;4997980;28;20527;-78
2022/08/06 00:49:28;;;;;;;3.80;3.55;;;;;;;20.50;65.54;64121.44;4990967;28;20460;-77
2022/08/06 00:51:55;;;;;;;4.18;3.88;;;;;;;20.48;66.60;64118.84;5002796;28;20215;-77
2022/08/06 00:54:23;;;;;;;3.90;3.70;;;;;;;20.48;67.12;64121.94;4990870;28;20242;-77
2022/08/06 00:56:49;;;;;;;4.03;3.75;;;;;;;20.46;66.33;64116.75;5005209;28;20511;-77
2022/08/06 00:59:16;;;;;;;4.13;3.83;;;;;;;20.46;66.47;64116.75;5006645;28;20203;-77
2022/08/06 01:01:43;;;;;;;3.60;3.30;;;;;;;20.41;66.94;64112.06;5002463;28;20331;-77
2022/08/06 01:04:10;;;;;;;3.97;3.67;;;;;;;20.40;67.38;64110.47;4989744;28;20230;-78
2022/08/06 01:06:39;;;;;;;4.25;3.95;;;;;;;20.41;66.68;64111.53;5006383;28;20577;-78
2022/08/06 01:09:06;;;;;;;4.30;4.00;;;;;;;20.38;67.28;64108.91;5005899;28;20194;-77
2022/08/06 01:11:33;;;;;;;4.13;3.83;;;;;;;20.29;67.82;64096.94;5005029;28;20537;-78
2022/08/06 01:14:00;;;;;;;4.18;3.90;;;;;;;20.35;66.92;64103.22;5004211;28;20377;-78
2022/08/06 01:16:34;;;;;;;4.43;4.10;;;;;;;20.35;66.73;64105.78;5006938;28;20234;-77
2022/08/06 01:19:12;;;;;;;4.65;4.22;;;;;;;20.32;67.42;64099.56;5005633;28;20527;-77
2022/08/06 01:22:10;;;;;;;4.10;3.83;;;;;;;20.38;67.60;64105.81;5000607;28;20452;-77
2022/08/06 01:24:56;;;;;;;4.10;3.90;;;;;;;20.39;66.78;64112.03;4988248;28;20191;-77
2022/08/06 01:27:39;;;;;;;4.03;3.80;;;;;;;20.37;66.71;64104.75;4986571;28;20420;-76
2022/08/06 01:30:08;;;;;;;4.30;3.92;;;;;;;20.41;68.45;64114.13;5000932;28;20402;-77
2022/08/06 01:32:41;;;;;;;4.28;3.97;;;;;;;20.42;67.72;64112.56;5004323;28;20203;-78
2022/08/06 01:35:13;;;;;;;3.97;3.72;;;;;;;20.35;67.88;64107.84;5006286;28;20199;-77
2022/08/06 01:37:46;;;;;;;4.40;4.00;;;;;;;20.31;68.65;64104.19;5002339;28;20314;-77
2022/08/06 01:40:17;;;;;;;4.28;3.97;;;;;;;20.33;68.14;64103.16;4997052;28;20234;-77
2022/08/06 01:42:46;;;;;;;4.30;4.00;;;;;;;20.30;68.98;64098.00;5005998;28;20511;-78
2022/08/06 01:45:16;;;;;;;4.53;4.22;;;;;;;20.35;68.80;64108.38;5005690;28;20219;-78
2022/08/06 01:47:48;;;;;;;4.63;4.32;;;;;;;20.27;69.15;64097.44;5000030;28;20209;-78
2022/08/06 01:50:17;;;;;;;4.60;3.50;;;;;;;20.25;69.51;64094.84;5003308;28;20485;-78
2022/08/06 01:52:44;;;;;;;3.83;3.50;;;;;;;20.21;70.17;64093.22;5006181;28;20274;-77
2022/08/06 01:55:15;;;;;;;4.38;4.13;;;;;;;20.15;69.89;64087.50;5005990;28;20237;-77
2022/08/06 01:57:47;;;;;;;5.82;4.60;;;;;;;20.12;69.57;64081.25;4999230;28;20811;-78
2022/08/06 02:00:15;;;;;;;5.00;4.60;;;;;;;20.09;69.79;64075.53;5006546;28;20234;-78
2022/08/06 02:02:44;;;;;;;4.05;3.60;;;;;;;20.07;69.75;64076.53;5006223;28;20275;-78
2022/08/06 02:05:14;;;;;;;4.25;4.05;;;;;;;20.07;69.13;64076.53;5003507;28;20501;-78
2022/08/06 02:07:44;;;;;;;3.58;3.35;;;;;;;20.07;70.86;64076.03;4992423;28;20199;-77
2022/08/06 02:10:14;;;;;;;3.92;3.63;;;;;;;20.04;71.50;64067.72;5003868;28;20230;-78
2022/08/06 02:12:43;;;;;;;4.38;3.80;;;;;;;20.03;71.48;64071.84;4985851;28;20199;-77
2022/08/06 02:15:14;;;;;;;3.72;3.53;;;;;;;19.93;71.91;64064.00;4990974;28;20203;-77
2022/08/06 02:17:45;;;;;;;3.63;3.42;;;;;;;19.89;71.14;64057.25;4999426;28;20237;-78
2022/08/06 02:20:17;;;;;;;4.40;4.05;;;;;;;19.92;71.06;64057.78;4994553;28;20239;-77
2022/08/06 02:22:46;;;;;;;4.40;4.10;;;;;;;19.88;70.15;64058.81;4986334;28;20242;-77
2022/08/06 02:25:17;;;;;;;3.80;3.58;;;;;;;19.84;69.97;64054.63;4990742;28;20442;-78
2022/08/06 07:45:14;;;;;;;8.73;5.97;;;;;;;26.20;50.29;64717.88;4982761;23;1357460;-77
2022/08/06 07:47:43;;;;;;;6.65;5.95;;;;;;;26.24;50.97;64718.94;4963574;29;20204;-77
2022/08/06 07:50:13;;;;;;;7.47;6.07;;;;;;;26.20;51.19;64715.25;4949026;28;20236;-78
2022/08/06 07:52:41;;;;;;;6.85;5.95;;;;;;;26.23;50.90;64719.97;4942484;29;20259;-78
2022/08/06 07:55:10;;;;;;;17.25;6.75;;;;;;;26.46;51.81;64741.47;4929244;29;20218;-78
2022/08/06 07:57:38;;;;;;;6.75;5.93;;;;;;;26.68;49.54;64765.09;4929768;29;20208;-78
2022/08/06 08:00:06;;;;;;;6.57;5.85;;;;;;;26.82;49.03;64779.78;4933861;29;20409;-78
2022/08/06 08:02:34;;;;;;;7.60;5.78;;;;;;;26.84;49.05;64781.34;4948190;29;20237;-78
2022/08/06 08:07:52;;;;;;;7.05;5.85;;;;;;;27.12;47.33;64818.56;4896661;29;20248;-78
2022/08/06 08:10:20;;;;;;;11.60;5.30;;;;;;;27.37;47.48;64844.28;4947283;29;20205;-78
2022/08/06 08:12:47;;;;;;;6.57;4.85;;;;;;;27.15;45.53;64817.00;4947139;29;20260;-78
2022/08/06 08:15:14;;;;;;;4.55;4.20;;;;;;;27.21;43.14;64822.78;4947071;29;20221;-78
2022/08/06 08:17:43;;;;;;;6.97;4.60;;;;;;;27.35;45.24;64834.88;4942219;29;20206;-76
2022/08/06 08:20:12;;;;;;;8.23;4.78;;;;;;;27.54;44.84;64857.44;4946582;29;20221;-78
2022/08/06 08:22:39;;;;;;;5.03;4.35;;;;;;;27.70;44.08;64873.69;4948924;29;20207;-78
2022/08/06 08:25:08;;;;;;;7.80;5.78;;;;;;;27.85;44.35;64884.72;4946512;29;20258;-77
2022/08/06 08:27:35;;;;;;;5.22;4.93;;;;;;;27.84;44.35;64888.91;4938921;29;20276;-77
2022/08/06 08:30:02;;;;;;;5.20;4.82;;;;;;;28.10;43.14;64913.06;4946258;29;20283;-78
2022/08/06 08:32:29;;;;;;;4.35;4.13;;;;;;;28.19;42.55;64925.16;4947393;29;20201;-77
2022/08/06 08:34:57;;;;;;;8.85;4.88;;;;;;;28.29;42.67;64933.56;4953037;29;20510;-78
2022/08/06 08:37:25;;;;;;;5.50;5.10;;;;;;;28.35;42.02;64939.84;4944778;29;20205;-79
2022/08/06 08:39:52;;;;;;;5.65;4.15;;;;;;;28.31;42.06;64940.91;4946759;29;20220;-78
2022/08/06 08:42:23;;;;;;;4.15;3.42;;;;;;;28.34;40.93;64940.88;4946641;29;20231;-78
2022/08/06 08:44:51;;;;;;;6.20;3.92;;;;;;;28.37;40.43;64941.94;4944188;29;20232;-77
2022/08/06 08:47:20;;;;;;;3.60;3.40;;;;;;;28.30;40.28;64937.22;4929907;29;20241;-77
2022/08/06 08:49:51;;;;;;;3.72;3.42;;;;;;;28.41;40.20;64945.63;4930477;29;20221;-80
2022/08/06 08:52:25;;;;;;;4.72;4.30;;;;;;;28.68;41.34;64973.47;4943677;29;20201;-77
2022/08/06 08:54:55;;;;;;;4.13;3.83;;;;;;;28.81;40.46;64990.28;4939025;29;20271;-78
2022/08/06 08:57:23;;;;;;;4.88;4.15;;;;;;;29.02;39.54;65012.34;4927456;29;20253;-79
2022/08/06 08:59:50;;;;;;;5.25;4.30;;;;;;;29.03;41.01;65016.00;4927342;29;20699;-78
2022/08/06 09:02:18;;;;;;;4.57;4.10;;;;;;;29.26;41.12;65034.94;4927119;29;20201;-78
2022/08/06 09:04:46;;;;;;;4.25;3.85;;;;;;;29.39;38.94;65048.06;4930480;29;20224;-78
2022/08/06 09:07:13;;;;;;;4.07;3.88;;;;;;;29.47;38.06;65059.09;4930542;29;20201;-78
2022/08/06 09:09:42;;;;;;;4.40;3.60;;;;;;;29.52;37.86;65064.91;4928183;29;20221;-78
2022/08/06 09:12:10;;;;;;;4.50;4.20;;;;;;;29.39;37.14;65048.06;4928349;29;20264;-79
2022/08/06 09:14:37;;;;;;;4.13;3.63;;;;;;;29.36;37.61;65042.81;4927682;29;20229;-78
2022/08/06 09:17:06;;;;;;;3.78;3.47;;;;;;;29.35;37.63;65044.41;4928092;29;20441;-78
2022/08/06 09:19:33;;;;;;;4.13;3.72;;;;;;;29.61;38.58;65070.66;4929033;29;20223;-78
2022/08/06 09:22:00;;;;;;;4.32;3.92;;;;;;;29.85;39.04;65096.44;4928291;29;20269;-78
2022/08/06 09:24:28;;;;;;;4.55;3.80;;;;;;;29.94;37.99;65108.50;4926275;29;20543;-78
2022/08/06 09:27:10;;;;;;;3.63;3.40;;;;;;;30.17;37.34;65134.81;4927340;29;20237;-78
2022/08/06 09:29:48;;;;;;;4.15;3.85;;;;;;;30.11;36.64;65129.03;4927549;29;20247;-76
2022/08/06 09:32:45;;;;;;;3.83;3.63;;;;;;;29.89;36.39;65103.25;4930004;29;20196;-79
2022/08/06 09:35:23;;;;;;;3.95;3.70;;;;;;;29.98;36.04;65110.09;4934671;29;20236;-79
2022/08/06 09:37:51;;;;;;;3.47;3.28;;;;;;;29.82;35.76;65098.00;4931874;29;20197;-79
2022/08/06 09:40:19;;;;;;;4.38;3.90;;;;;;;29.90;36.01;65106.94;4933609;29;20387;-78
2022/08/06 09:42:50;;;;;;;5.65;5.10;;;;;;;29.90;37.46;65101.69;4931697;29;20201;-78
2022/08/06 09:45:19;;;;;;;4.00;3.70;;;;;;;30.01;35.87;65112.75;4931876;29;20252;-78
2022/08/06 09:47:47;;;;;;;9.60;4.00;;;;;;;29.97;36.95;65111.16;4933179;29;20441;-80
2022/08/06 09:50:14;;;;;;;4.50;4.20;;;;;;;29.98;35.85;65114.81;4930617;29;20221;-79
2022/08/06 09:52:41;;;;;;;5.43;3.53;;;;;;;30.04;35.77;65121.13;4931535;29;20197;-77
2022/08/06 09:55:28;;;;;;;3.88;3.67;;;;;;;30.16;36.82;65133.75;4931701;29;20227;-79
2022/08/06 09:57:57;;;;;;;4.10;3.83;;;;;;;30.37;35.07;65156.38;4931668;29;20206;-80
2022/08/06 10:00:27;;;;;;;4.22;3.83;;;;;;;30.58;34.61;65170.56;4935372;29;20197;-80
2022/08/06 10:02:59;;;;;;;4.50;4.22;;;;;;;30.61;35.15;65176.34;4932220;29;20218;-80
2022/08/06 10:05:27;;;;;;;4.25;3.95;;;;;;;30.50;34.17;65166.91;4932806;29;20237;-79
2022/08/06 10:08:06;;;;;;;5.22;3.72;;;;;;;30.72;34.06;65186.88;4931903;29;20202;-80
2022/08/06 10:10:45;;;;;;;5.00;4.25;;;;;;;30.44;33.34;65160.59;4932214;29;20209;-79
2022/08/06 10:13:27;;;;;;;4.22;4.03;;;;;;;30.73;35.09;65187.94;4933546;29;20249;-78
2022/08/06 10:15:56;;;;;;;4.25;3.88;;;;;;;30.96;34.18;65217.41;4933327;29;20218;-78
2022/08/06 10:18:39;;;;;;;5.38;4.28;;;;;;;31.27;34.70;65250.53;4931010;29;20233;-78
2022/08/06 10:21:08;;;;;;;3.67;3.55;;;;;;;31.53;35.03;65280.03;4930296;29;20201;-78
2022/08/06 10:23:36;;;;;;;4.03;3.80;;;;;;;31.86;34.45;65306.34;4930536;29;20221;-80
2022/08/06 10:26:05;;;;;;;3.90;3.70;;;;;;;32.10;32.95;65329.00;4931514;29;20229;-78
2022/08/06 10:28:36;;;;;;;3.75;3.40;;;;;;;31.94;33.87;65320.56;4933285;29;20225;-79
2022/08/06 10:31:04;;;;;;;3.40;3.30;;;;;;;31.80;33.13;65300.56;4933672;29;20189;-78
2022/08/06 10:33:41;;;;;;;3.95;3.65;;;;;;;31.94;34.02;65322.69;4932373;29;20384;-77
2022/08/06 10:36:12;;;;;;;3.55;3.35;;;;;;;32.05;32.14;65326.88;4930281;29;20283;-77
2022/08/06 10:38:45;;;;;;;4.07;3.67;;;;;;;31.73;31.56;65297.91;4929909;29;20272;-78
2022/08/06 10:41:13;;;;;;;3.85;3.63;;;;;;;31.56;31.54;65275.81;4929864;29;20446;-78
2022/08/06 10:43:42;;;;;;;4.15;3.95;;;;;;;31.18;33.07;65241.09;4932835;29;20304;-79
2022/08/06 10:46:12;;;;;;;7.57;3.90;;;;;;;30.96;33.77;65215.28;4929748;29;20232;-77
2022/08/06 10:48:42;;;;;;;4.88;3.75;;;;;;;30.92;33.11;65210.56;4931658;29;20232;-79
2022/08/06 10:51:10;;;;;;;3.60;3.35;;;;;;;31.12;34.33;65231.59;4930013;29;20210;-79
2022/08/06 10:53:40;;;;;;;3.47;3.28;;;;;;;31.60;32.89;65282.66;4931067;29;20221;-80
2022/08/06 10:56:09;;;;;;;3.50;3.40;;;;;;;32.03;32.50;65329.53;4930283;29;20233;-79
2022/08/06 10:58:38;;;;;;;3.65;3.45;;;;;;;32.13;31.41;65335.31;4932906;29;20232;-78
2022/08/06 11:01:09;;;;;;;3.70;3.55;;;;;;;32.25;31.02;65350.03;4931009;29;20509;-80
2022/08/06 11:03:48;;;;;;;3.60;3.40;;;;;;;32.06;31.42;65330.56;4932278;29;20269;-78
2022/08/06 11:06:46;;;;;;;3.35;3.15;;;;;;;32.51;31.30;65374.81;4930202;29;20221;-78
2022/08/06 11:09:27;;;;;;;3.67;3.50;;;;;;;32.27;30.42;65349.53;4930537;29;20278;-77
2022/08/06 11:12:11;;;;;;;4.13;3.50;;;;;;;32.41;31.19;65372.72;4933712;29;20189;-79
2022/08/06 11:14:40;;;;;;;3.67;3.42;;;;;;;32.53;31.13;65379.56;4931214;29;20217;-79
2022/08/06 11:17:08;;;;;;;4.03;3.72;;;;;;;31.62;30.96;65287.41;4929908;29;20205;-77
2022/08/06 11:19:40;;;;;;;5.03;4.07;;;;;;;30.77;33.10;65190.03;4930440;29;20537;-78
2022/08/06 11:22:08;;;;;;;4.40;4.03;;;;;;;30.73;32.63;65187.94;4930983;29;20261;-80
2022/08/06 11:24:51;;;;;;;3.67;3.30;;;;;;;30.83;32.78;65198.47;4931777;29;20273;-79
2022/08/06 11:27:49;;;;;;;4.82;4.45;;;;;;;31.04;33.86;65223.19;4931836;29;20265;-78
2022/08/06 11:30:17;;;;;;;4.13;3.55;;;;;;;31.05;32.22;65224.22;4929737;29;20228;-78
2022/08/06 11:32:47;;;;;;;5.32;3.47;;;;;;;30.91;32.73;65212.66;4930759;29;20202;-78
2022/08/06 11:35:39;;;;;;;4.00;3.80;;;;;;;30.72;33.41;65194.78;4929624;29;20214;-79
2022/08/06 11:38:08;;;;;;;4.80;3.47;;;;;;;31.31;32.38;65251.59;4932070;29;20205;-78
2022/08/06 11:40:54;;;;;;;3.70;3.45;;;;;;;31.69;33.03;65294.22;4930806;29;20304;-79
2022/08/06 11:43:49;;;;;;;3.92;3.65;;;;;;;31.81;32.21;65303.69;4930070;29;20221;-78
2022/08/06 11:46:22;;;;;;;3.42;3.33;;;;;;;31.66;32.78;65291.09;4930016;29;20273;-78
2022/08/06 11:49:25;;;;;;;3.33;3.22;;;;;;;31.44;32.95;65268.44;4929659;29;20225;-79
2022/08/06 11:51:54;;;;;;;4.13;3.72;;;;;;;31.94;32.33;65320.56;4874933;29;20202;-79
2022/08/06 11:54:23;;;;;;;4.47;3.47;;;;;;;32.02;31.50;65323.19;4891450;29;20217;-78
2022/08/06 11:57:24;;;;;;;3.45;3.35;;;;;;;32.00;31.48;65321.63;4918592;29;20389;-79
2022/08/06 12:00:15;;;;;;;4.50;4.03;;;;;;;31.23;32.65;65248.44;4947998;29;20279;-77
2022/08/06 12:02:57;;;;;;;8.75;4.10;;;;;;;30.88;32.65;65206.88;4948014;29;20260;-78
2022/08/06 12:05:44;;;;;;;3.55;3.35;;;;;;;30.81;32.23;65198.97;4949178;29;20197;-79
2022/08/06 12:08:27;;;;;;;3.80;3.60;;;;;;;30.96;33.12;65212.16;4950571;29;20255;-79
2022/08/06 12:11:29;;;;;;;4.43;4.10;;;;;;;31.05;33.43;65227.41;4947265;29;20204;-78
2022/08/06 12:13:58;;;;;;;4.25;3.80;;;;;;;31.18;33.47;65235.28;4947862;29;20227;-78
2022/08/06 12:16:40;;;;;;;4.53;3.63;;;;;;;30.91;32.70;65212.66;4948284;29;20548;-78
2022/08/06 12:19:13;;;;;;;4.03;3.72;;;;;;;30.58;32.79;65175.84;4949719;29;20272;-79
2022/08/06 12:21:43;;;;;;;4.25;3.88;;;;;;;30.61;33.62;65178.97;4950531;29;20216;-79
2022/08/06 12:24:11;;;;;;;4.47;4.00;;;;;;;30.86;33.28;65204.25;4947937;29;20221;-78
2022/08/06 12:26:38;;;;;;;3.85;3.65;;;;;;;30.94;33.48;65215.84;4948151;29;20462;-78
2022/08/06 12:29:06;;;;;;;3.60;3.40;;;;;;;30.99;33.55;65218.47;4948634;29;20280;-77
2022/08/06 12:31:37;;;;;;;8.63;4.25;;;;;;;31.12;33.95;65231.59;4948532;29;20224;-78
2022/08/06 12:34:04;;;;;;;4.30;3.90;;;;;;;31.35;33.22;65255.81;4948447;29;20540;-78
2022/08/06 12:36:33;;;;;;;8.02;4.07;;;;;;;31.18;33.11;65235.28;4949690;29;20217;-79
2022/08/06 12:39:03;;;;;;;5.88;4.00;;;;;;;30.43;33.61;65159.53;4947742;29;20284;-78
2022/08/06 12:41:40;;;;;;;7.90;3.65;;;;;;;30.18;34.15;65130.59;4947733;29;20201;-78
2022/08/06 12:44:08;;;;;;;6.32;4.72;;;;;;;30.21;34.57;65139.53;4948914;29;20228;-79
2022/08/06 12:46:35;;;;;;;4.85;4.22;;;;;;;30.55;33.81;65174.78;4948437;29;20243;-78
2022/08/06 12:49:02;;;;;;;4.10;3.88;;;;;;;30.56;33.52;65173.72;4949652;29;20228;-78
2022/08/06 12:51:29;;;;;;;6.85;3.95;;;;;;;30.76;34.69;65188.97;4950873;29;20256;-78
2022/08/06 12:53:58;;;;;;;4.13;3.78;;;;;;;30.75;33.02;65192.66;4948180;29;20224;-79
2022/08/06 12:56:29;;;;;;;3.97;3.67;;;;;;;30.69;32.97;65184.25;4947831;29;20201;-79
2022/08/06 12:58:57;;;;;;;3.47;3.38;;;;;;;31.03;31.28;65220.03;4947446;29;20430;-78
2022/08/06 13:01:27;;;;;;;4.50;3.60;;;;;;;31.13;31.54;65230.53;4947432;29;20208;-78
2022/08/06 13:03:56;;;;;;;5.85;3.80;;;;;;;30.82;31.96;65200.06;4947932;29;20225;-78
2022/08/06 13:06:26;;;;;;;4.18;3.75;;;;;;;30.58;32.93;65173.19;4948271;29;20232;-79
2022/08/06 13:08:54;;;;;;;4.22;3.95;;;;;;;30.85;32.30;65203.19;4952415;29;20228;-79
2022/08/06 13:11:21;;;;;;;3.78;3.38;;;;;;;31.29;33.31;65250.00;4952511;29;20299;-78
2022/08/06 13:13:52;;;;;;;3.35;3.15;;;;;;;31.73;31.71;65292.66;4951877;29;20220;-79
2022/08/06 13:16:20;;;;;;;3.92;3.72;;;;;;;32.30;31.66;65358.47;4952571;29;20431;-80
2022/08/06 13:19:06;;;;;;;3.67;3.47;;;;;;;32.75;30.68;65402.72;4954469;29;20221;-79
2022/08/06 13:21:35;;;;;;;4.03;3.83;;;;;;;32.82;30.02;65407.47;4952186;29;20188;-78
2022/08/06 13:24:03;;;;;;;4.07;3.80;;;;;;;32.94;30.78;65422.75;4951287;29;20255;-79
2022/08/06 13:26:31;;;;;;;4.03;3.80;;;;;;;33.57;31.39;65491.25;4951553;29;20338;-79
2022/08/06 13:29:12;;;;;;;5.90;3.88;;;;;;;33.93;30.21;65526.56;4951910;29;20327;-79
2022/08/06 13:31:40;;;;;;;4.32;3.92;;;;;;;34.44;29.45;65577.72;4954751;29;20271;-79
2022/08/06 13:34:09;;;;;;;3.60;3.40;;;;;;;34.97;28.04;65632.56;4951437;29;20404;-79
2022/08/06 13:36:40;;;;;;;4.05;3.55;;;;;;;34.96;27.19;65632.03;4951297;29;20244;-80
2022/08/06 13:39:21;;;;;;;3.65;3.53;;;;;;;35.05;26.68;65646.84;4951891;29;20260;-78
2022/08/06 13:41:48;;;;;;;3.60;3.20;;;;;;;34.32;25.73;65567.69;4949484;29;20430;-79
2022/08/06 13:44:33;;;;;;;3.65;3.45;;;;;;;33.54;27.10;65485.97;4951832;29;20228;-78
2022/08/06 13:47:01;;;;;;;4.10;3.80;;;;;;;32.72;27.75;65391.66;4952036;29;20493;-77
2022/08/06 13:49:29;;;;;;;3.60;3.35;;;;;;;32.28;28.15;65353.72;4950201;29;20283;-79
2022/08/06 13:51:56;;;;;;;3.53;3.42;;;;;;;32.46;27.94;65369.53;4950813;29;20197;-78
2022/08/06 13:54:24;;;;;;;3.70;3.50;;;;;;;32.65;27.79;65395.34;4950906;29;20231;-78
2022/08/06 13:56:51;;;;;;;4.10;3.33;;;;;;;32.74;28.40;65401.66;4951334;29;20193;-77
2022/08/06 13:59:19;;;;;;;4.00;3.78;;;;;;;32.39;28.52;65359.50;4951000;29;20227;-78
2022/08/06 14:01:48;;;;;;;4.38;4.07;;;;;;;31.78;29.46;65303.19;4951905;29;20207;-78
2022/08/06 14:04:17;;;;;;;5.82;3.90;;;;;;;31.14;29.56;65231.06;4950302;29;20236;-78
2022/08/06 14:06:45;;;;;;;4.53;4.22;;;;;;;30.81;30.61;65199.53;4950808;29;20239;-78
2022/08/06 14:09:12;;;;;;;4.30;3.92;;;;;;;30.48;31.16;65164.78;4950623;29;20228;-78
2022/08/06 14:11:39;;;;;;;5.05;4.63;;;;;;;30.40;31.34;65159.53;4951102;29;20556;-79
2022/08/06 14:14:06;;;;;;;4.22;3.80;;;;;;;30.75;31.28;65195.28;4950319;29;20624;-80
2022/08/06 14:16:33;;;;;;;3.95;3.67;;;;;;;31.12;30.16;65234.75;4951829;29;20205;-78
2022/08/06 14:19:01;;;;;;;3.75;3.53;;;;;;;31.40;29.70;65258.97;4950233;29;20231;-80
2022/08/06 14:21:28;;;;;;;3.90;3.67;;;;;;;32.25;28.14;65352.69;4950115;29;20205;-79
2022/08/06 14:23:55;;;;;;;4.32;4.13;;;;;;;32.88;28.20;65421.16;4951607;29;20258;-79
2022/08/06 14:26:22;;;;;;;3.97;3.78;;;;;;;33.11;27.76;65437.50;4949702;29;20252;-76
2022/08/06 14:28:49;;;;;;;3.63;3.40;;;;;;;32.89;28.10;65416.94;4951254;29;20236;-79
2022/08/06 14:31:16;;;;;;;3.90;3.60;;;;;;;33.81;27.61;65511.25;4951854;29;20247;-79
2022/08/06 14:33:43;;;;;;;3.60;3.50;;;;;;;34.48;26.92;65581.41;4949941;29;20248;-80
2022/08/06 14:36:11;;;;;;;4.43;4.20;;;;;;;35.20;26.67;65654.19;4949834;29;20204;-79
2022/08/06 14:38:40;;;;;;;3.85;3.55;;;;;;;34.80;24.99;65623.63;4950544;29;20481;-79
2022/08/06 14:46:32;;;;;;;4.50;4.10;;;;;;;32.60;28.29;65386.94;4928709;29;20228;-77
2022/08/06 14:49:00;;;;;;;4.13;3.92;;;;;;;32.42;28.81;65368.50;4949531;29;20220;-78
2022/08/06 14:51:29;;;;;;;4.53;4.15;;;;;;;31.92;29.43;65313.19;4949782;29;20264;-78
2022/08/06 14:53:56;;;;;;;4.15;3.85;;;;;;;31.64;29.68;65286.88;4950421;29;20288;-79
2022/08/06 14:56:22;;;;;;;3.90;3.67;;;;;;;30.96;30.45;65215.28;4948795;29;20224;-78
2022/08/06 14:58:49;;;;;;;4.70;4.28;;;;;;;30.84;30.35;65207.94;4949435;29;20220;-78
2022/08/06 15:01:16;;;;;;;3.88;3.75;;;;;;;31.16;29.18;65235.81;4949697;29;20548;-77
2022/08/06 15:03:43;;;;;;;3.95;3.75;;;;;;;31.50;28.96;65268.97;4948551;29;20220;-79
2022/08/06 15:06:10;;;;;;;4.00;3.80;;;;;;;31.97;28.60;65321.09;4949226;29;20204;-78
2022/08/06 15:08:38;;;;;;;4.18;3.97;;;;;;;31.97;28.34;65315.28;4949147;29;20258;-78
2022/08/06 15:11:05;;;;;;;4.50;4.00;;;;;;;31.95;28.87;65323.72;4950326;29;20221;-79
2022/08/06 15:13:33;;;;;;;4.25;4.05;;;;;;;31.84;29.26;65309.50;4948849;29;20217;-78
2022/08/06 15:15:59;;;;;;;4.50;4.20;;;;;;;31.48;29.99;65269.50;4950001;29;20197;-78
2022/08/06 15:18:26;;;;;;;4.28;3.97;;;;;;;31.25;30.69;65245.81;4949138;29;20244;-79
2022/08/06 15:20:53;;;;;;;5.82;4.13;;;;;;;31.39;29.91;65257.41;4949891;29;20201;-79
2022/08/06 15:23:20;;;;;;;5.03;4.18;;;;;;;31.51;30.54;65272.66;4950218;29;20576;-80
2022/08/06 15:25:48;;;;;;;4.50;4.18;;;;;;;31.41;30.54;65262.13;4949290;29;20205;-78
2022/08/06 15:28:17;;;;;;;4.15;3.85;;;;;;;31.11;30.38;65230.56;4948851;29;20358;-79
2022/08/06 15:30:44;;;;;;;4.65;4.25;;;;;;;30.89;30.92;65207.94;4948427;29;20192;-78
2022/08/06 15:33:11;;;;;;;3.90;3.70;;;;;;;31.26;30.51;65251.59;4949057;29;20537;-79
2022/08/06 15:35:38;;;;;;;3.90;3.70;;;;;;;31.51;30.31;65272.66;4949540;29;20201;-78
2022/08/06 15:38:05;;;;;;;4.55;4.22;;;;;;;31.88;30.11;65308.97;4948481;29;20509;-78
2022/08/06 15:40:31;;;;;;;4.90;4.60;;;;;;;32.09;29.77;65330.56;4948199;29;20200;-77
2022/08/06 15:43:00;;;;;;;4.15;3.95;;;;;;;32.12;29.59;65342.16;4948378;29;20229;-77
2022/08/06 15:45:27;;;;;;;4.70;4.45;;;;;;;32.42;29.73;65370.59;4948640;29;20402;-77
2022/08/06 15:47:53;;;;;;;4.55;4.28;;;;;;;32.55;29.56;65384.28;4947760;29;20232;-76
2022/08/06 15:50:21;;;;;;;4.38;4.05;;;;;;;32.54;30.23;65386.41;4947371;29;20200;-77
2022/08/06 15:52:48;;;;;;;5.20;4.50;;;;;;;32.57;30.55;65383.75;4947717;29;20231;-78
2022/08/06 15:55:15;;;;;;;4.80;4.40;;;;;;;32.60;29.33;65386.94;4947997;29;20200;-81
2022/08/06 15:57:42;;;;;;;4.38;4.18;;;;;;;31.81;29.80;65303.69;4951688;29;20207;-77
2022/08/06 16:00:13;;;;;;;6.53;4.68;;;;;;;31.26;30.39;65246.88;4948349;29;20562;-78
2022/08/06 16:02:40;;;;;;;4.22;3.92;;;;;;;31.02;31.03;65223.72;4947102;29;20226;-77
2022/08/06 16:05:08;;;;;;;4.75;4.55;;;;;;;30.76;31.28;65196.88;4947261;29;20275;-78
2022/08/06 16:07:34;;;;;;;4.65;4.18;;;;;;;30.74;31.63;65194.22;4946736;29;20238;-78
2022/08/06 16:10:01;;;;;;;4.55;4.35;;;;;;;30.84;31.89;65199.53;4947705;29;20265;-77
2022/08/06 16:12:28;;;;;;;4.25;4.03;;;;;;;30.83;31.89;65204.25;4948426;29;20205;-78
2022/08/06 16:14:56;;;;;;;5.00;4.68;;;;;;;30.83;32.53;65201.63;4947624;29;20280;-77
2022/08/06 16:17:24;;;;;;;5.15;4.65;;;;;;;30.65;32.71;65182.16;4947137;29;20265;-79
2022/08/06 16:19:51;;;;;;;7.18;4.80;;;;;;;30.54;32.89;65176.91;4947271;29;20415;-78
2022/08/06 16:22:18;;;;;;;6.07;5.00;;;;;;;30.28;33.20;65146.94;4946651;29;20361;-78
2022/08/06 16:24:47;;;;;;;4.57;4.30;;;;;;;30.46;32.79;65160.59;4950155;29;20248;-76
2022/08/06 16:27:15;;;;;;;4.85;4.57;;;;;;;30.44;32.43;65158.47;4946607;29;20458;-79
2022/08/06 16:29:42;;;;;;;4.82;4.60;;;;;;;30.21;32.17;65136.91;4946265;29;20268;-77
2022/08/06 16:32:09;;;;;;;5.65;5.13;;;;;;;30.35;32.13;65149.03;4947607;29;20240;-78
2022/08/06 16:34:37;;;;;;;5.10;4.80;;;;;;;30.18;32.48;65135.84;4946124;29;20220;-77
2022/08/06 16:37:04;;;;;;;5.80;5.20;;;;;;;30.35;32.32;65154.28;4946855;29;20240;-77
2022/08/06 16:39:31;;;;;;;5.93;5.40;;;;;;;30.66;32.02;65183.19;4948031;29;20220;-77
2022/08/06 16:41:58;;;;;;;5.00;4.80;;;;;;;30.91;32.61;65209.53;4947280;29;20197;-79
2022/08/06 16:44:26;;;;;;;5.45;5.05;;;;;;;31.08;31.37;65230.53;4946675;29;20228;-79
2022/08/06 16:46:53;;;;;;;5.15;4.85;;;;;;;30.99;31.68;65223.72;4946422;29;20201;-78
2022/08/06 16:49:20;;;;;;;5.32;4.88;;;;;;;31.13;32.05;65233.16;4946871;29;20239;-78
2022/08/06 16:51:48;;;;;;;4.88;4.57;;;;;;;31.32;32.56;65255.28;4947237;29;20448;-79
2022/08/06 16:54:15;;;;;;;4.82;4.53;;;;;;;31.47;31.94;65268.44;4947351;29;20235;-78
2022/08/06 16:56:43;;;;;;;5.30;5.00;;;;;;;31.57;31.76;65278.97;4947142;29;20201;-79
2022/08/06 16:59:09;;;;;;;4.93;4.53;;;;;;;31.27;32.10;65247.91;4946917;29;20485;-79
2022/08/06 17:01:36;;;;;;;5.53;5.13;;;;;;;31.19;32.36;65242.13;4946973;29;20201;-78
2022/08/06 17:04:04;;;;;;;6.70;4.82;;;;;;;31.06;32.32;65223.19;4947385;29;20220;-79
2022/08/06 17:06:31;;;;;;;6.68;6.03;;;;;;;30.88;32.36;65204.25;4947519;29;20197;-78
2022/08/06 17:09:01;;;;;;;5.13;4.53;;;;;;;30.67;33.01;65184.78;4949133;29;20288;-78
2022/08/06 17:11:29;;;;;;;7.25;4.78;;;;;;;30.46;32.64;65160.59;4949072;29;20216;-78
2022/08/06 17:13:56;;;;;;;4.75;4.35;;;;;;;30.29;33.20;65145.34;4947840;29;20225;-78